createdAt,value
2018-04-16T00:00:35.539Z,3.85
2018-04-16T00:03:01.724Z,2.90
2018-04-16T00:05:27.946Z,6.37
2018-04-16T00:07:54.154Z,3.33
2018-04-16T00:10:20.490Z,3.65
2018-04-16T00:12:46.682Z,6.30
2018-04-16T00:15:12.900Z,3.25
2018-04-16T00:17:41.535Z,3.55
2018-04-16T00:20:10.908Z,3.62
2018-04-16T00:22:41.576Z,5.53
2018-04-16T00:25:12.010Z,4.97
2018-04-16T00:27:44.670Z,4.72
2018-04-16T00:30:13.347Z,5.10
2018-04-16T00:32:47.112Z,3.50
2018-04-16T00:35:19.291Z,3.08
2018-04-16T00:37:51.668Z,6.57
2018-04-16T00:40:25.083Z,3.83
2018-04-16T00:42:57.733Z,3.97
2018-04-16T00:45:30.025Z,3.47
2018-04-16T00:48:02.358Z,6.65
2018-04-16T00:53:57.273Z,3.12
2018-04-16T00:56:29.659Z,3.33
2018-04-16T00:59:03.103Z,7.32
2018-04-16T01:01:35.478Z,3.75
2018-04-16T01:04:07.890Z,3.47
2018-04-16T01:06:40.278Z,3.12
2018-04-16T01:09:12.606Z,5.75
2018-04-16T01:11:44.906Z,5.32
2018-04-16T01:14:17.012Z,6.37
2018-04-16T01:16:49.331Z,4.55
2018-04-16T01:19:21.687Z,13.10
2018-04-16T01:25:00.982Z,12.77
2018-04-16T01:27:33.270Z,10.35
2018-04-16T01:30:06.699Z,12.75
2018-04-16T01:32:38.952Z,10.80
2018-04-16T01:35:11.318Z,9.73
2018-04-16T01:37:43.693Z,8.25
2018-04-16T01:43:22.130Z,4.32
2018-04-16T01:45:55.500Z,9.88
2018-04-16T01:48:27.838Z,6.95
2018-04-16T01:51:03.866Z,5.82
2018-04-16T01:53:36.178Z,4.80
2018-04-16T01:56:08.540Z,7.27
2018-04-16T01:58:40.829Z,5.70
2018-04-16T02:01:13.142Z,9.83
2018-04-16T02:03:45.399Z,8.60
2018-04-16T02:06:17.509Z,6.70
2018-04-16T02:08:49.842Z,4.93
2018-04-16T02:11:22.186Z,11.68
2018-04-16T02:13:54.418Z,7.85
2018-04-16T02:19:31.875Z,21.25
2018-04-16T02:22:04.232Z,35.42
2018-04-16T02:24:36.474Z,44.78
2018-04-16T02:27:08.791Z,29.80
2018-04-16T02:29:41.175Z,33.80
2018-04-16T02:32:13.578Z,16.58
2018-04-16T02:34:45.897Z,20.27
2018-04-16T02:37:18.227Z,16.80
2018-04-16T02:39:50.538Z,18.40
2018-04-16T02:42:24.018Z,15.60
2018-04-16T02:44:57.385Z,25.05
2018-04-16T02:47:32.146Z,8.60
2018-04-16T02:50:04.422Z,10.50
2018-04-16T02:52:36.530Z,8.53
2018-04-16T02:55:10.881Z,14.33
2018-04-16T02:57:43.226Z,35.63
2018-04-16T03:00:15.498Z,33.70
2018-04-16T03:02:47.819Z,29.73
2018-04-16T03:05:20.190Z,23.35
2018-04-16T03:07:52.463Z,17.70
2018-04-16T03:10:24.790Z,17.43
2018-04-16T03:12:57.143Z,26.13
2018-04-16T03:15:29.484Z,24.13
2018-04-16T03:18:02.929Z,18.60
2018-04-16T03:20:35.217Z,10.87
2018-04-16T03:23:08.690Z,10.85
2018-04-16T03:25:42.205Z,9.95
2018-04-16T03:28:15.573Z,10.17
2018-04-16T03:30:47.995Z,12.00
2018-04-16T03:33:20.379Z,11.07
2018-04-16T03:35:52.596Z,11.23
2018-04-16T03:38:24.761Z,20.57
2018-04-16T03:40:56.876Z,18.23
2018-04-16T03:43:29.297Z,14.80
2018-04-16T03:46:01.501Z,13.90
2018-04-16T03:48:33.854Z,10.20
2018-04-16T03:51:06.185Z,16.57
2018-04-16T03:56:31.420Z,24.70
2018-04-16T03:58:57.603Z,23.23
2018-04-16T04:01:23.815Z,23.87
2018-04-16T04:03:49.979Z,17.33
2018-04-16T04:06:16.142Z,11.83
2018-04-16T04:08:42.331Z,9.53
2018-04-16T04:11:08.498Z,10.60
2018-04-16T04:13:34.687Z,11.03
2018-04-16T04:16:00.884Z,32.70
2018-04-16T04:18:27.067Z,27.37
2018-04-16T04:20:54.536Z,31.83
2018-04-16T04:23:33.106Z,26.93
2018-04-16T04:26:12.629Z,12.57
2018-04-16T04:28:52.218Z,14.50
2018-04-16T04:31:18.411Z,13.47
2018-04-16T04:33:44.570Z,12.23
2018-04-16T04:36:10.767Z,11.80
2018-04-16T04:38:37.153Z,11.63
2018-04-16T04:41:03.324Z,10.57
2018-04-16T04:43:30.604Z,9.87
2018-04-16T04:45:56.762Z,10.57
2018-04-16T04:48:22.944Z,10.27
2018-04-16T04:50:49.147Z,10.63
2018-04-16T04:53:15.342Z,10.03
2018-04-16T04:55:41.579Z,9.77
2018-04-16T04:58:07.783Z,9.30
2018-04-16T05:00:33.994Z,10.50
2018-04-16T05:03:00.176Z,10.40
2018-04-16T05:05:31.063Z,10.50
2018-04-16T05:07:57.331Z,9.37
2018-04-16T05:10:23.490Z,9.83
2018-04-16T05:12:49.709Z,11.10
2018-04-16T05:15:15.887Z,11.07
2018-04-16T05:17:42.102Z,8.17
2018-04-16T05:20:09.606Z,9.13
2018-04-16T05:22:35.814Z,7.83
2018-04-16T05:25:03.166Z,9.17
2018-04-16T05:27:29.338Z,7.67
2018-04-16T05:29:55.595Z,7.53
2018-04-16T05:32:26.599Z,7.50
2018-04-16T05:34:52.835Z,6.93
2018-04-16T05:37:19.029Z,7.63
2018-04-16T05:39:45.195Z,6.87
2018-04-16T05:42:11.374Z,5.13
2018-04-16T05:44:38.660Z,4.53
2018-04-16T05:47:04.842Z,5.67
2018-04-16T05:49:31.957Z,5.50
2018-04-16T05:51:59.337Z,5.40
2018-04-16T05:54:25.558Z,10.57
2018-04-16T05:56:51.795Z,10.70
2018-04-16T05:59:17.987Z,11.30
2018-04-16T06:01:44.238Z,6.07
2018-04-16T06:04:10.526Z,26.87
2018-04-16T06:06:36.750Z,30.10
2018-04-16T06:09:02.947Z,19.23
2018-04-16T06:11:29.170Z,4.43
2018-04-16T06:13:55.331Z,23.43
2018-04-16T06:16:21.557Z,15.87
2018-04-16T06:18:47.756Z,4.27
2018-04-16T06:21:13.930Z,4.57
2018-04-16T06:23:40.126Z,4.87
2018-04-16T06:26:06.340Z,6.03
2018-04-16T06:28:32.526Z,10.53
2018-04-16T06:30:58.771Z,10.93
2018-04-16T06:33:25.059Z,13.27
2018-04-16T06:35:53.209Z,13.67
2018-04-16T06:38:21.144Z,13.27
2018-04-16T06:40:50.954Z,13.47
2018-04-16T06:43:19.595Z,12.37
2018-04-16T06:45:46.895Z,17.17
2018-04-16T06:48:13.092Z,23.60
2018-04-16T06:50:39.344Z,24.13
2018-04-16T06:53:05.603Z,27.80
2018-04-16T06:55:31.710Z,17.77
2018-04-16T06:57:58.986Z,61.50
2018-04-16T07:00:25.170Z,33.93
2018-04-16T07:02:51.346Z,22.60
2018-04-16T07:05:18.663Z,9.80
2018-04-16T07:07:44.838Z,10.70
2018-04-16T07:10:11.088Z,31.10
2018-04-16T07:12:37.244Z,15.40
2018-04-16T07:15:04.543Z,15.73
2018-04-16T07:17:30.747Z,7.57
2018-04-16T07:19:56.950Z,5.60
2018-04-16T07:22:23.124Z,4.68
2018-04-16T07:24:49.339Z,4.90
2018-04-16T07:27:16.631Z,5.30
2018-04-16T07:29:42.899Z,4.90
2018-04-16T07:32:11.388Z,3.23
2018-04-16T07:34:37.793Z,3.80
2018-04-16T07:37:03.978Z,4.53
2018-04-16T07:39:30.162Z,3.30
2018-04-16T07:41:56.338Z,3.87
2018-04-16T07:44:22.506Z,2.95
2018-04-16T07:46:48.783Z,2.97
2018-04-16T07:49:15.071Z,2.53
2018-04-16T07:51:41.334Z,6.25
2018-04-16T07:54:07.536Z,3.00
2018-04-16T07:56:33.685Z,2.87
2018-04-16T07:59:01.034Z,3.28
2018-04-16T08:01:27.378Z,2.70
2018-04-16T08:03:55.297Z,3.47
2018-04-16T08:06:22.696Z,2.78
2018-04-16T08:08:48.898Z,3.45
2018-04-16T08:11:15.335Z,2.30
2018-04-16T08:13:42.924Z,2.53
2018-04-16T08:16:09.086Z,2.40
2018-04-16T08:18:35.405Z,2.83
2018-04-16T08:21:01.572Z,2.30
2018-04-16T08:23:28.859Z,2.78
2018-04-16T08:25:55.085Z,2.45
2018-04-16T08:28:21.278Z,2.20
2018-04-16T08:30:47.481Z,5.90
2018-04-16T08:33:13.693Z,2.97
2018-04-16T08:35:39.899Z,2.58
2018-04-16T08:38:06.099Z,5.07
2018-04-16T08:40:32.349Z,2.10
2018-04-16T08:42:58.525Z,2.55
2018-04-16T08:45:24.840Z,2.37
2018-04-16T08:47:52.150Z,2.60
2018-04-16T08:50:18.333Z,3.08
2018-04-16T08:52:44.558Z,2.72
2018-04-16T08:55:10.764Z,2.37
2018-04-16T08:57:37.011Z,4.62
2018-04-16T09:00:04.535Z,2.28
2018-04-16T09:02:31.694Z,2.37
2018-04-16T09:04:59.050Z,2.67
2018-04-16T09:07:26.325Z,2.50
2018-04-16T09:09:52.490Z,2.40
2018-04-16T09:12:18.692Z,1.95
2018-04-16T09:14:44.900Z,2.15
2018-04-16T09:17:11.090Z,4.05
2018-04-16T09:19:37.289Z,1.98
2018-04-16T09:22:03.484Z,2.08
2018-04-16T09:24:29.671Z,2.37
2018-04-16T09:26:55.853Z,3.47
2018-04-16T09:29:22.090Z,3.70
2018-04-16T09:31:48.307Z,4.93
2018-04-16T09:34:15.619Z,3.25
2018-04-16T09:36:41.815Z,2.22
2018-04-16T09:39:08.070Z,3.10
2018-04-16T09:41:34.275Z,3.10
2018-04-16T09:44:00.472Z,3.62
2018-04-16T09:46:26.666Z,3.22
2018-04-16T09:48:52.854Z,1.58
2018-04-16T09:51:19.017Z,2.22
2018-04-16T09:53:45.213Z,1.27
2018-04-16T09:56:11.398Z,2.12
2018-04-16T09:58:37.610Z,3.58
2018-04-16T10:01:09.827Z,1.20
2018-04-16T10:03:36.153Z,1.30
2018-04-16T10:06:02.442Z,1.33
2018-04-16T10:08:28.610Z,1.92
2018-04-16T10:10:54.814Z,1.62
2018-04-16T10:13:21.755Z,1.92
2018-04-16T10:15:47.915Z,2.97
2018-04-16T10:18:14.126Z,1.20
2018-04-16T10:20:40.300Z,2.75
2018-04-16T10:23:06.546Z,1.27
2018-04-16T10:25:32.723Z,2.25
2018-04-16T10:27:58.886Z,1.80
2018-04-16T10:30:25.078Z,2.05
2018-04-16T10:32:51.278Z,3.58
2018-04-16T10:35:17.455Z,1.73
2018-04-16T10:37:44.361Z,1.65
2018-04-16T10:40:10.540Z,1.92
2018-04-16T10:42:37.798Z,2.12
2018-04-16T10:45:03.974Z,0.98
2018-04-16T10:47:30.238Z,5.55
2018-04-16T10:49:56.395Z,1.45
2018-04-16T10:52:22.566Z,2.47
2018-04-16T10:54:48.783Z,6.87
2018-04-16T10:57:14.974Z,2.85
2018-04-16T10:59:41.175Z,8.27
2018-04-16T11:02:07.367Z,1.50
2018-04-16T11:04:33.650Z,1.30
2018-04-16T11:07:00.581Z,3.50
2018-04-16T11:09:27.486Z,4.95
2018-04-16T11:11:53.686Z,2.53
2018-04-16T11:14:19.876Z,1.83
2018-04-16T11:16:46.090Z,3.30
2018-04-16T11:19:12.320Z,5.45
2018-04-16T11:21:38.526Z,4.70
2018-04-16T11:24:04.710Z,1.67
2018-04-16T11:26:30.919Z,1.08
2018-04-16T11:28:57.115Z,1.50
2018-04-16T11:31:23.274Z,1.25
2018-04-16T11:33:49.448Z,2.03
2018-04-16T11:36:16.398Z,2.50
2018-04-16T11:38:42.550Z,2.28
2018-04-16T11:41:08.744Z,1.35
2018-04-16T11:43:34.961Z,2.65
2018-04-16T11:46:01.242Z,3.45
2018-04-16T11:48:27.424Z,0.98
2018-04-16T11:50:53.618Z,1.67
2018-04-16T11:53:19.803Z,0.40
2018-04-16T11:55:46.014Z,1.05
2018-04-16T11:58:12.480Z,1.20
2018-04-16T12:00:38.797Z,0.70
2018-04-16T12:03:05.065Z,3.87
2018-04-16T12:05:31.278Z,0.77
2018-04-16T12:07:57.470Z,0.85
2018-04-16T12:10:23.752Z,0.50
2018-04-16T12:12:49.910Z,3.22
2018-04-16T12:15:16.104Z,0.73
2018-04-16T12:17:43.079Z,0.40
2018-04-16T12:20:09.261Z,3.97
2018-04-16T12:22:35.458Z,2.45
2018-04-16T12:25:02.449Z,0.65
2018-04-16T12:27:28.670Z,0.68
2018-04-16T12:29:54.834Z,2.08
2018-04-16T12:32:21.007Z,1.05
2018-04-16T12:34:47.379Z,2.33
2018-04-16T12:37:13.523Z,3.08
2018-04-16T12:39:39.805Z,0.90
2018-04-16T12:42:05.981Z,5.50
2018-04-16T12:44:32.152Z,2.55
2018-04-16T12:46:58.331Z,1.00
2018-04-16T12:49:24.526Z,2.15
2018-04-16T12:51:51.463Z,1.33
2018-04-16T12:54:17.669Z,0.57
2018-04-16T12:56:44.646Z,0.60
2018-04-16T12:59:10.845Z,1.70
2018-04-16T13:01:37.032Z,0.30
2018-04-16T13:04:04.336Z,0.57
2018-04-16T13:06:30.502Z,0.40
2018-04-16T13:08:57.433Z,1.45
2018-04-16T13:11:24.390Z,0.98
2018-04-16T13:13:51.401Z,0.93
2018-04-16T13:16:17.591Z,2.40
2018-04-16T13:18:43.819Z,1.12
2018-04-16T13:21:10.054Z,0.45
2018-04-16T13:23:36.259Z,2.78
2018-04-16T13:26:02.828Z,0.62
2018-04-16T13:28:29.090Z,0.80
2018-04-16T13:30:56.123Z,1.02
2018-04-16T13:33:22.315Z,2.33
2018-04-16T13:35:48.540Z,1.67
2018-04-16T13:38:14.737Z,0.30
2018-04-16T13:41:03.595Z,1.90
2018-04-16T13:43:30.505Z,0.90
2018-04-16T13:46:17.157Z,0.40
2018-04-16T13:48:43.539Z,0.70
2018-04-16T13:51:11.159Z,1.37
2018-04-16T13:53:46.315Z,1.37
2018-04-16T13:56:32.170Z,1.20
2018-04-16T13:58:58.412Z,1.70
2018-04-16T14:01:24.575Z,1.10
2018-04-16T14:03:50.887Z,0.88
2018-04-16T14:06:33.894Z,3.75
2018-04-16T14:09:06.857Z,1.33
2018-04-16T14:11:34.538Z,3.00
2018-04-16T14:14:04.215Z,0.30
2018-04-16T14:16:30.581Z,0.40
2018-04-16T14:19:11.161Z,0.95
2018-04-16T14:21:37.367Z,0.30
2018-04-16T14:24:03.907Z,2.67
2018-04-16T14:26:30.448Z,0.88
2018-04-16T14:29:04.914Z,1.10
2018-04-16T14:31:32.367Z,3.25
2018-04-16T14:34:11.214Z,0.77
2018-04-16T14:36:39.794Z,0.35
2018-04-16T14:39:06.356Z,0.85
2018-04-16T14:41:32.727Z,0.93
2018-04-16T14:44:01.122Z,2.12
2018-04-16T14:46:27.336Z,1.25
2018-04-16T14:48:53.519Z,3.75
2018-04-16T14:51:20.427Z,3.28
2018-04-16T14:53:46.632Z,1.40
2018-04-16T14:56:12.816Z,3.10
2018-04-16T14:58:39.038Z,2.28
2018-04-16T15:01:05.236Z,0.90
2018-04-16T15:03:31.466Z,0.93
2018-04-16T15:05:57.667Z,0.50
2018-04-16T15:08:23.834Z,2.20
2018-04-16T15:10:50.754Z,0.40
2018-04-16T15:13:18.067Z,2.53
2018-04-16T15:15:44.270Z,0.70
2018-04-16T15:18:10.495Z,0.90
2018-04-16T15:20:36.686Z,1.58
2018-04-16T15:23:02.866Z,0.32
2018-04-16T15:25:29.775Z,1.95
2018-04-16T15:27:56.698Z,4.25
2018-04-16T15:30:22.884Z,1.62
2018-04-16T15:32:49.112Z,1.08
2018-04-16T15:35:15.250Z,5.05
2018-04-16T15:37:42.173Z,2.37
2018-04-16T15:40:08.386Z,2.75
2018-04-16T15:42:34.610Z,0.43
2018-04-16T15:45:01.903Z,0.70
2018-04-16T15:47:28.085Z,1.83
2018-04-16T15:49:54.274Z,1.92
2018-04-16T15:52:20.599Z,1.00
2018-04-16T15:54:46.850Z,0.85
2018-04-16T15:57:13.023Z,5.32
2018-04-16T15:59:40.070Z,1.85
2018-04-16T16:02:06.324Z,1.20
2018-04-16T16:04:32.477Z,1.00
2018-04-16T16:06:59.399Z,2.15
2018-04-16T16:09:25.682Z,0.70
2018-04-16T16:11:52.534Z,0.60
2018-04-16T16:14:18.828Z,4.00
2018-04-16T16:16:45.057Z,1.70
2018-04-16T16:19:11.433Z,1.20
2018-04-16T16:21:37.628Z,0.65
2018-04-16T16:24:03.838Z,1.20
2018-04-16T16:26:30.073Z,3.10
2018-04-16T16:28:56.331Z,3.37
2018-04-16T16:31:22.498Z,1.85
2018-04-16T16:33:48.677Z,2.22
2018-04-16T16:36:15.671Z,1.23
2018-04-16T16:38:41.871Z,5.55
2018-04-16T16:41:08.110Z,0.40
2018-04-16T16:43:34.422Z,3.10
2018-04-16T16:46:01.868Z,0.50
2018-04-16T16:48:28.192Z,1.02
2018-04-16T16:50:54.574Z,1.42
2018-04-16T16:53:20.783Z,2.37
2018-04-16T16:55:46.997Z,0.70
2018-04-16T16:58:13.167Z,1.80
2018-04-16T17:00:40.595Z,2.30
2018-04-16T17:03:06.782Z,1.85
2018-04-16T17:05:34.218Z,0.68
2018-04-16T17:08:00.410Z,2.08
2018-04-16T17:10:26.642Z,3.15
2018-04-16T17:12:55.393Z,1.15
2018-04-16T17:15:21.590Z,1.85
2018-04-16T17:17:48.506Z,1.67
2018-04-16T17:20:15.807Z,6.45
2018-04-16T17:22:41.996Z,2.05
2018-04-16T17:25:08.158Z,1.27
2018-04-16T17:27:34.341Z,3.30
2018-04-16T17:30:00.497Z,4.30
2018-04-16T17:32:28.195Z,0.55
2018-04-16T17:34:54.366Z,2.15
2018-04-16T17:37:21.266Z,2.33
2018-04-16T17:39:47.450Z,1.08
2018-04-16T17:42:13.626Z,3.22
2018-04-16T17:44:39.874Z,0.40
2018-04-16T17:47:06.035Z,1.33
2018-04-16T17:49:32.290Z,5.97
2018-04-16T17:51:58.463Z,1.42
2018-04-16T17:54:25.734Z,1.90
2018-04-16T17:56:51.930Z,1.45
2018-04-16T17:59:18.124Z,2.70
2018-04-16T18:01:44.281Z,0.85
2018-04-16T18:04:10.487Z,1.85
2018-04-16T18:06:36.658Z,1.40
2018-04-16T18:09:02.886Z,1.95
2018-04-16T18:11:29.067Z,2.40
2018-04-16T18:13:55.346Z,0.80
2018-04-16T18:16:21.694Z,3.10
2018-04-16T18:18:48.006Z,1.83
2018-04-16T18:21:14.219Z,8.27
2018-04-16T18:23:40.435Z,4.00
2018-04-16T18:26:06.632Z,1.10
2018-04-16T18:28:32.845Z,4.87
2018-04-16T18:30:59.116Z,3.40
2018-04-16T18:33:25.415Z,6.12
2018-04-16T18:35:51.674Z,2.87
2018-04-16T18:38:17.891Z,1.58
2018-04-16T18:40:44.079Z,2.42
2018-04-16T18:43:11.391Z,1.35
2018-04-16T18:45:37.582Z,2.87
2018-04-16T18:48:03.854Z,3.12
2018-04-16T18:50:30.219Z,3.95
2018-04-16T18:52:56.381Z,3.20
2018-04-16T18:55:22.629Z,3.92
2018-04-16T18:57:48.960Z,4.32
2018-04-16T19:00:15.144Z,5.53
2018-04-16T19:02:41.326Z,3.20
2018-04-16T19:05:08.619Z,5.47
2018-04-16T19:07:34.924Z,3.17
2018-04-16T19:10:01.086Z,5.07
2018-04-16T19:12:28.380Z,3.25
2018-04-16T19:14:54.594Z,4.90
2018-04-16T19:17:20.903Z,7.22
2018-04-16T19:19:47.127Z,3.55
2018-04-16T19:22:13.307Z,5.57
2018-04-16T19:24:40.278Z,6.47
2018-04-16T19:27:12.696Z,4.25
2018-04-16T19:29:39.284Z,3.80
2018-04-16T19:32:06.237Z,2.92
2018-04-16T19:34:38.462Z,6.22
2018-04-16T19:37:04.755Z,6.72
2018-04-16T19:39:32.261Z,7.15
2018-04-16T19:42:04.568Z,2.40
2018-04-16T19:44:30.875Z,6.05
2018-04-16T19:46:57.030Z,3.80
2018-04-16T19:49:31.400Z,6.05
2018-04-16T19:51:58.890Z,5.57
2018-04-16T19:54:25.212Z,5.55
2018-04-16T19:56:57.575Z,4.65
2018-04-16T19:59:24.040Z,4.70
2018-04-16T20:01:56.645Z,4.32
2018-04-16T20:04:22.845Z,5.12
2018-04-16T20:06:49.049Z,4.43
2018-04-16T20:09:15.433Z,6.22
2018-04-16T20:11:42.408Z,7.12
2018-04-16T20:14:09.795Z,2.60
2018-04-16T20:16:38.033Z,8.93
2018-04-16T20:19:04.503Z,5.07
2018-04-16T20:21:31.308Z,5.90
2018-04-16T20:23:58.952Z,4.47
2018-04-16T20:26:26.320Z,5.12
2018-04-16T20:28:53.997Z,7.03
2018-04-16T20:31:20.294Z,6.20
2018-04-16T20:33:47.629Z,4.15
2018-04-16T20:36:13.932Z,3.47
2018-04-16T20:38:41.797Z,4.37
2018-04-16T20:41:08.416Z,5.53
2018-04-16T20:43:34.682Z,2.85
2018-04-16T20:46:00.887Z,3.85
2018-04-16T20:48:27.042Z,2.95
2018-04-16T20:50:55.028Z,1.92
2018-04-16T20:53:21.554Z,4.30
2018-04-16T20:55:47.799Z,2.78
2018-04-16T20:58:13.999Z,6.45
2018-04-16T21:00:40.575Z,4.85
2018-04-16T21:03:08.570Z,3.78
2018-04-16T21:05:34.731Z,10.38
2018-04-16T21:08:02.694Z,6.00
2018-04-16T21:10:30.114Z,4.18
2018-04-16T21:12:56.282Z,4.43
2018-04-16T21:15:22.492Z,4.35
2018-04-16T21:17:48.679Z,3.97
2018-04-16T21:20:15.959Z,7.95
2018-04-16T21:22:42.234Z,3.92
2018-04-16T21:25:08.497Z,4.37
2018-04-16T21:27:34.938Z,4.47
2018-04-16T21:30:01.278Z,6.62
2018-04-16T21:32:27.554Z,35.75
2018-04-16T21:34:54.071Z,24.70
2018-04-16T21:37:21.165Z,11.82
2018-04-16T21:39:47.775Z,11.60
2018-04-16T21:42:15.351Z,10.07
2018-04-16T21:44:41.540Z,13.65
2018-04-16T21:47:08.456Z,9.10
2018-04-16T21:49:35.108Z,6.45
2018-04-16T21:52:01.477Z,7.82
2018-04-16T21:54:27.655Z,7.00
2018-04-16T21:56:53.831Z,5.53
2018-04-16T21:59:21.137Z,7.93
2018-04-16T22:01:47.498Z,5.87
2018-04-16T22:04:13.800Z,4.53
2018-04-16T22:06:41.734Z,10.35
2018-04-16T22:09:07.920Z,7.05
2018-04-16T22:11:34.106Z,4.25
2018-04-16T22:14:00.393Z,8.35
2018-04-16T22:16:26.587Z,8.52
2018-04-16T22:18:53.866Z,6.62
2018-04-16T22:21:20.035Z,6.75
2018-04-16T22:23:46.216Z,4.53
2018-04-16T22:26:12.822Z,9.48
2018-04-16T22:28:39.053Z,6.10
2018-04-16T22:31:05.230Z,5.10
2018-04-16T22:33:31.451Z,8.43
2018-04-16T22:35:58.719Z,8.98
2018-04-16T22:38:24.886Z,6.65
2018-04-16T22:40:52.140Z,6.12
2018-04-16T22:43:18.326Z,7.37
2018-04-16T22:45:45.609Z,6.37
2018-04-16T22:48:11.777Z,10.02
2018-04-16T22:50:39.069Z,5.03
2018-04-16T22:53:05.662Z,6.65
2018-04-16T22:55:31.855Z,9.02
2018-04-16T22:57:59.158Z,11.18
2018-04-16T23:00:25.354Z,8.55
2018-04-16T23:02:51.534Z,8.27
2018-04-16T23:05:17.692Z,4.30
2018-04-16T23:07:43.871Z,6.05
2018-04-16T23:10:10.035Z,3.90
2018-04-16T23:12:36.198Z,10.52
2018-04-16T23:15:02.415Z,4.28
2018-04-16T23:17:28.587Z,4.18
2018-04-16T23:19:54.775Z,4.68
2018-04-16T23:22:20.930Z,6.35
2018-04-16T23:24:48.210Z,6.70
2018-04-16T23:27:14.421Z,8.85
2018-04-16T23:29:40.554Z,6.57
2018-04-16T23:32:06.867Z,5.18
2018-04-16T23:34:33.065Z,10.52
2018-04-16T23:36:59.230Z,5.62
2018-04-16T23:39:26.655Z,7.68
2018-04-16T23:41:52.807Z,3.65
2018-04-16T23:44:18.978Z,9.82
2018-04-16T23:46:45.152Z,3.80
2018-04-16T23:49:11.306Z,9.63
2018-04-16T23:51:37.494Z,8.45
2018-04-16T23:54:03.681Z,7.12
2018-04-16T23:56:29.866Z,8.48
2018-04-16T23:58:57.148Z,5.85
